createdAt,value
2022-09-12T00:01:44.594Z,64.26
2022-09-12T00:04:17.723Z,64.24
2022-09-12T00:06:54.053Z,64.31
2022-09-12T00:09:30.034Z,64.38
2022-09-12T00:12:06.428Z,64.46
2022-09-12T00:14:39.691Z,64.41
2022-09-12T00:17:15.643Z,64.45
2022-09-12T00:19:48.772Z,64.57
2022-09-12T00:22:21.954Z,64.69
2022-09-12T00:25:14.249Z,64.87
2022-09-12T00:27:50.914Z,64.85
2022-09-12T00:30:24.263Z,64.93
2022-09-12T00:33:11.802Z,64.94
2022-09-12T00:35:50.005Z,65.03
2022-09-12T00:38:23.559Z,64.99
2022-09-12T00:40:59.913Z,65.16
2022-09-12T00:43:42.836Z,65.30
2022-09-12T00:46:37.578Z,65.34
2022-09-12T00:49:17.599Z,65.29
2022-09-12T00:51:54.742Z,65.52
2022-09-12T00:54:29.665Z,65.55
2022-09-12T00:57:08.546Z,65.61
2022-09-12T00:59:55.770Z,65.56
2022-09-12T01:02:29.832Z,65.70
2022-09-12T01:05:03.501Z,65.92
2022-09-12T01:07:40.175Z,65.83
2022-09-12T01:10:16.972Z,65.94
2022-09-12T01:12:53.739Z,65.84
2022-09-12T01:15:27.433Z,65.83
2022-09-12T01:18:19.441Z,65.89
2022-09-12T01:21:21.770Z,65.93
2022-09-12T01:24:36.064Z,65.88
2022-09-12T01:27:41.506Z,66.02
2022-09-12T01:30:26.874Z,66.20
2022-09-12T01:33:18.926Z,66.45
2022-09-12T01:36:03.398Z,66.38
2022-09-12T01:39:02.729Z,66.30
2022-09-12T01:41:56.308Z,66.43
2022-09-12T01:44:57.054Z,66.43
2022-09-12T01:47:41.073Z,66.51
2022-09-12T01:50:21.981Z,66.56
2022-09-12T01:53:20.908Z,66.70
2022-09-12T01:56:01.753Z,66.80
2022-09-12T01:58:45.284Z,66.89
2022-09-12T02:01:27.781Z,66.81
2022-09-12T02:04:10.232Z,66.93
2022-09-12T02:06:49.795Z,66.97
2022-09-12T02:09:29.935Z,66.89
2022-09-12T02:12:05.839Z,67.06
2022-09-12T02:14:53.723Z,67.15
2022-09-12T02:17:42.726Z,67.12
2022-09-12T02:20:44.311Z,67.25
2022-09-12T02:23:22.452Z,67.38
2022-09-12T02:26:01.909Z,67.26
2022-09-12T02:28:47.090Z,67.34
2022-09-12T02:31:28.764Z,67.51
2022-09-12T02:34:34.714Z,67.57
2022-09-12T02:37:40.129Z,67.50
2022-09-12T02:40:16.552Z,67.68
2022-09-12T02:42:49.866Z,67.70
2022-09-12T02:45:24.119Z,67.91
2022-09-12T02:48:20.852Z,68.09
2022-09-12T02:50:57.866Z,68.07
2022-09-12T02:53:32.657Z,68.05
2022-09-12T02:56:09.711Z,68.22
2022-09-12T02:58:52.138Z,68.37
2022-09-12T03:02:00.174Z,68.42
2022-09-12T03:05:14.757Z,68.37
2022-09-12T03:08:20.200Z,68.41
2022-09-12T03:11:20.192Z,68.62
2022-09-12T03:14:24.213Z,68.73
2022-09-12T03:17:27.637Z,68.70
2022-09-12T03:20:17.292Z,68.90
2022-09-12T03:22:58.571Z,68.85
2022-09-12T03:25:47.366Z,69.04
2022-09-12T03:28:42.274Z,68.89
2022-09-12T03:31:35.924Z,68.86
2022-09-12T03:34:13.534Z,68.82
2022-09-12T03:36:46.955Z,68.78
2022-09-12T03:39:30.456Z,68.92
2022-09-12T03:42:07.264Z,68.99
2022-09-12T03:44:43.235Z,68.89
2022-09-12T03:47:29.399Z,68.89
2022-09-12T03:50:13.129Z,68.84
2022-09-12T03:52:46.360Z,69.02
2022-09-12T03:55:19.508Z,69.14
2022-09-12T03:58:03.416Z,68.89
2022-09-12T04:00:56.775Z,68.98
2022-09-12T04:03:29.894Z,69.08
2022-09-12T04:06:03.085Z,68.97
2022-09-12T04:08:40.138Z,69.02
2022-09-12T04:11:15.833Z,69.02
2022-09-12T04:13:50.069Z,69.08
2022-09-12T04:16:23.898Z,69.12
2022-09-12T04:18:57.819Z,69.39
2022-09-12T04:21:34.078Z,69.32
2022-09-12T04:24:10.289Z,69.35
2022-09-12T04:26:43.471Z,69.37
2022-09-12T04:29:17.319Z,69.58
2022-09-12T04:31:50.991Z,69.75
2022-09-12T04:34:24.029Z,69.83
2022-09-12T04:36:57.049Z,69.93
2022-09-12T04:39:32.671Z,70.01
2022-09-12T04:42:07.530Z,70.00
2022-09-12T04:45:01.252Z,70.21
2022-09-12T04:47:34.428Z,70.14
2022-09-12T04:50:08.925Z,70.08
2022-09-12T04:52:41.943Z,70.16
2022-09-12T04:55:14.919Z,70.27
2022-09-12T04:57:58.044Z,70.49
2022-09-12T05:00:35.470Z,70.40
2022-09-12T05:03:10.903Z,70.61
2022-09-12T05:06:05.433Z,70.38
2022-09-12T05:08:42.032Z,70.37
2022-09-12T05:11:16.816Z,70.40
2022-09-12T05:14:03.663Z,70.44
2022-09-12T05:16:36.944Z,70.56
2022-09-12T05:19:12.393Z,70.60
2022-09-12T05:21:45.494Z,70.50
2022-09-12T05:24:18.958Z,70.67
2022-09-12T05:27:01.102Z,70.50
2022-09-12T05:29:36.429Z,70.72
2022-09-12T05:32:12.758Z,70.79
2022-09-12T05:34:54.721Z,70.69
2022-09-12T05:37:48.159Z,70.68
2022-09-12T05:40:32.547Z,70.86
2022-09-12T05:43:15.793Z,70.70
2022-09-12T05:45:52.001Z,70.78
2022-09-12T05:48:26.952Z,70.78
2022-09-12T05:51:05.208Z,70.88
2022-09-12T05:53:48.388Z,70.84
2022-09-12T05:56:24.055Z,70.85
2022-09-12T05:58:59.703Z,70.95
2022-09-12T06:01:42.052Z,70.82
2022-09-12T06:04:16.134Z,71.23
2022-09-12T06:06:52.159Z,71.23
2022-09-12T06:09:45.493Z,71.16
2022-09-12T06:12:18.654Z,71.24
2022-09-12T06:15:14.715Z,71.15
2022-09-12T06:17:51.503Z,71.49
2022-09-12T06:20:28.408Z,71.45
2022-09-12T06:23:04.535Z,71.48
2022-09-12T06:25:37.883Z,71.53
2022-09-12T06:28:13.582Z,71.77
2022-09-12T06:30:46.670Z,71.73
2022-09-12T06:33:20.394Z,71.76
2022-09-12T06:35:56.621Z,71.74
2022-09-12T06:38:39.760Z,71.63
2022-09-12T06:41:14.624Z,71.82
2022-09-12T06:43:47.908Z,71.86
2022-09-12T06:46:21.365Z,72.05
2022-09-12T06:48:54.888Z,72.00
2022-09-12T06:51:48.540Z,72.32
2022-09-12T06:54:42.878Z,72.46
2022-09-12T06:57:30.649Z,72.31
2022-09-12T07:00:08.614Z,72.44
2022-09-12T07:02:42.220Z,72.44
2022-09-12T07:05:18.672Z,72.68
2022-09-12T07:07:52.046Z,72.55
2022-09-12T07:10:25.277Z,72.36
2022-09-12T07:13:08.616Z,72.56
2022-09-12T07:15:52.849Z,72.58
2022-09-12T07:18:35.609Z,72.56
2022-09-12T07:21:29.712Z,72.75
2022-09-12T07:24:14.000Z,72.92
2022-09-12T07:27:07.747Z,72.87
2022-09-12T07:29:44.566Z,72.90
2022-09-12T07:32:17.863Z,72.51
2022-09-12T07:34:54.067Z,72.72
2022-09-12T07:37:29.786Z,72.71
2022-09-12T07:40:03.921Z,72.57
2022-09-12T07:42:37.271Z,72.72
2022-09-12T07:45:11.785Z,72.88
2022-09-12T07:47:45.235Z,72.86
2022-09-12T07:50:21.710Z,72.82
2022-09-12T07:52:56.712Z,72.87
2022-09-12T07:55:29.918Z,72.82
2022-09-12T07:58:04.098Z,72.58
2022-09-12T08:01:02.956Z,72.51
2022-09-12T08:03:49.426Z,72.76
2022-09-12T08:06:25.324Z,72.68
2022-09-12T08:09:00.343Z,72.90
2022-09-12T08:11:43.009Z,72.69
2022-09-12T08:14:19.289Z,72.70
2022-09-12T08:16:52.483Z,72.81
2022-09-12T08:19:25.875Z,72.77
2022-09-12T08:22:11.514Z,72.97
2022-09-12T08:25:05.571Z,73.03
2022-09-12T08:27:59.141Z,73.10
2022-09-12T08:30:32.341Z,73.16
2022-09-12T08:33:05.449Z,73.15
2022-09-12T08:35:48.483Z,73.20
2022-09-12T08:38:21.781Z,73.13
2022-09-12T08:41:03.651Z,72.69
2022-09-12T08:43:56.834Z,72.75
2022-09-12T08:46:38.188Z,72.63
2022-09-12T08:49:16.836Z,72.46
2022-09-12T08:51:53.372Z,72.29
2022-09-12T08:54:47.960Z,72.37
2022-09-12T08:57:21.199Z,72.19
2022-09-12T08:59:55.208Z,72.15
2022-09-12T09:02:54.652Z,72.05
2022-09-12T09:05:40.095Z,71.97
2022-09-12T09:08:36.897Z,71.91
2022-09-12T09:11:22.719Z,72.03
2022-09-12T09:14:29.783Z,72.06
2022-09-12T09:17:17.197Z,71.75
2022-09-12T09:20:06.215Z,71.53
2022-09-12T09:22:53.528Z,71.55
2022-09-12T09:25:54.154Z,71.54
2022-09-12T09:28:37.928Z,71.50
2022-09-12T09:31:18.525Z,71.59
2022-09-12T09:33:54.435Z,71.42
2022-09-12T09:36:40.573Z,71.33
2022-09-12T09:39:26.515Z,71.26
2022-09-12T09:42:12.118Z,71.41
2022-09-12T09:44:47.447Z,71.45
2022-09-12T09:47:24.018Z,71.28
2022-09-12T09:50:00.778Z,71.25
2022-09-12T09:52:39.034Z,71.26
2022-09-12T09:55:22.328Z,71.30
2022-09-12T09:57:56.026Z,71.27
2022-09-12T10:00:36.288Z,71.06
2022-09-12T10:03:31.490Z,71.09
2022-09-12T10:06:32.658Z,71.08
2022-09-12T10:09:25.990Z,70.97
2022-09-12T10:11:59.570Z,70.86
2022-09-12T10:14:41.899Z,70.88
2022-09-12T10:17:34.309Z,70.94
2022-09-12T10:20:34.922Z,70.83
2022-09-12T10:23:31.031Z,70.96
2022-09-12T10:26:10.148Z,71.09
2022-09-12T10:28:51.036Z,71.03
2022-09-12T10:31:30.555Z,70.99
2022-09-12T10:34:06.017Z,70.86
2022-09-12T10:36:43.069Z,71.02
2022-09-12T10:39:21.897Z,71.02
2022-09-12T10:41:57.491Z,70.90
2022-09-12T10:44:55.931Z,71.11
2022-09-12T10:47:33.889Z,71.10
2022-09-12T10:50:26.395Z,71.15
2022-09-12T10:53:18.392Z,70.95
2022-09-12T10:56:07.393Z,70.90
2022-09-12T10:59:01.529Z,70.96
2022-09-12T11:01:44.469Z,70.84
2022-09-12T11:04:41.542Z,70.90
2022-09-12T11:07:39.813Z,70.81
2022-09-12T11:10:37.476Z,70.88
2022-09-12T11:13:52.773Z,70.76
2022-09-12T11:16:42.695Z,70.92
2022-09-12T11:19:51.385Z,70.64
2022-09-12T11:22:36.237Z,70.75
2022-09-12T11:25:24.696Z,70.91
2022-09-12T11:28:27.580Z,70.76
2022-09-12T11:31:26.702Z,70.50
2022-09-12T11:34:04.451Z,70.31
2022-09-12T11:36:58.039Z,70.42
2022-09-12T11:39:40.436Z,70.25
2022-09-12T11:42:20.235Z,70.26
2022-09-12T11:45:00.918Z,70.29
2022-09-12T11:47:37.847Z,70.46
2022-09-12T11:50:22.252Z,70.48
2022-09-12T11:52:59.394Z,70.42
2022-09-12T11:55:52.896Z,70.36
2022-09-12T11:58:30.182Z,70.48
2022-09-12T12:01:11.941Z,70.38
2022-09-12T12:03:47.844Z,70.14
2022-09-12T12:06:23.516Z,69.94
2022-09-12T12:08:58.865Z,70.02
2022-09-12T12:11:36.173Z,70.09
2022-09-12T12:14:17.327Z,70.12
2022-09-12T12:16:51.564Z,70.15
2022-09-12T12:19:38.430Z,70.13
2022-09-12T12:22:19.430Z,69.90
2022-09-12T12:25:05.959Z,69.96
2022-09-12T12:27:57.302Z,69.83
2022-09-12T12:31:03.733Z,69.93
2022-09-12T12:33:56.911Z,69.79
2022-09-12T12:36:49.959Z,69.24
2022-09-12T12:40:01.441Z,69.08
2022-09-12T12:43:22.878Z,69.08
2022-09-12T12:46:13.927Z,68.67
2022-09-12T12:49:02.644Z,68.71
2022-09-12T12:52:03.564Z,68.53
2022-09-12T12:54:58.260Z,68.42
2022-09-12T12:57:42.220Z,68.44
2022-09-12T13:03:31.878Z,68.65
2022-09-12T13:06:08.717Z,68.45
2022-09-12T13:08:47.875Z,68.54
2022-09-12T13:11:36.184Z,68.39
2022-09-12T13:14:58.867Z,68.12
2022-09-12T13:17:40.966Z,67.92
2022-09-12T13:20:28.986Z,68.15
2022-09-12T13:23:02.754Z,68.30
2022-09-12T13:25:38.231Z,68.38
2022-09-12T13:28:19.954Z,68.47
2022-09-12T13:31:01.306Z,68.23
2022-09-12T13:33:43.520Z,68.31
2022-09-12T13:36:48.222Z,68.39
2022-09-12T13:39:28.125Z,68.38
2022-09-12T13:42:33.857Z,68.32
2022-09-12T13:45:13.583Z,67.89
2022-09-12T13:47:56.530Z,67.81
2022-09-12T13:50:39.215Z,67.79
2022-09-12T13:53:18.395Z,67.57
2022-09-12T13:55:55.644Z,67.52
2022-09-12T13:58:30.750Z,67.37
2022-09-12T14:01:14.382Z,67.33
2022-09-12T14:04:11.451Z,67.23
2022-09-12T14:06:50.324Z,67.29
2022-09-12T14:09:29.405Z,67.30
2022-09-12T14:12:06.312Z,66.93
2022-09-12T14:14:44.210Z,66.96
2022-09-12T14:17:40.242Z,66.82
2022-09-12T14:20:18.832Z,66.69
2022-09-12T14:22:55.927Z,66.47
2022-09-12T14:25:32.194Z,66.39
2022-09-12T14:28:06.450Z,66.19
2022-09-12T14:30:40.391Z,66.19
2022-09-12T14:33:24.015Z,66.23
2022-09-12T14:36:20.046Z,65.89
2022-09-12T14:39:04.220Z,65.89
2022-09-12T14:41:42.078Z,65.81
2022-09-12T14:44:28.510Z,65.60
2022-09-12T14:47:22.473Z,65.52
2022-09-12T14:49:56.330Z,65.55
2022-09-12T14:52:33.866Z,65.32
2022-09-12T14:55:33.982Z,65.18
2022-09-12T14:58:26.592Z,65.12
2022-09-12T15:01:03.256Z,65.17
2022-09-12T15:03:38.929Z,65.08
2022-09-12T15:06:26.862Z,65.15
2022-09-12T15:09:14.576Z,65.08
2022-09-12T15:11:50.320Z,65.23
2022-09-12T15:14:26.686Z,65.36
2022-09-12T15:17:02.824Z,65.22
2022-09-12T15:19:36.175Z,65.23
2022-09-12T15:22:14.350Z,65.11
2022-09-12T15:24:50.390Z,65.26
2022-09-12T15:27:27.729Z,65.25
2022-09-12T15:30:03.411Z,65.05
2022-09-12T15:32:38.146Z,65.15
2022-09-12T15:35:18.370Z,65.20
2022-09-12T15:37:51.723Z,64.97
2022-09-12T15:40:26.660Z,65.07
2022-09-12T15:43:03.365Z,65.25
2022-09-12T15:45:47.656Z,65.26
2022-09-12T15:48:23.630Z,65.29
2022-09-12T15:51:01.762Z,65.45
2022-09-12T15:53:44.114Z,65.57
2022-09-12T15:56:26.768Z,65.62
2022-09-12T15:59:00.454Z,65.80
2022-09-12T16:01:34.000Z,65.77
2022-09-12T16:04:20.845Z,66.04
2022-09-12T16:06:54.965Z,66.08
2022-09-12T16:09:28.523Z,66.19
2022-09-12T16:12:21.880Z,66.56
2022-09-12T16:14:55.089Z,66.63
2022-09-12T16:17:36.665Z,66.75
2022-09-12T16:20:13.890Z,66.94
2022-09-12T16:22:47.301Z,67.03
2022-09-12T16:25:21.258Z,67.20
2022-09-12T16:27:54.520Z,67.20
2022-09-12T16:30:30.753Z,67.39
2022-09-12T16:33:04.360Z,67.49
2022-09-12T16:35:47.675Z,67.64
2022-09-12T16:38:20.890Z,67.98
2022-09-12T16:41:15.054Z,67.74
2022-09-12T16:43:49.328Z,67.86
2022-09-12T16:46:24.996Z,68.00
2022-09-12T16:48:59.512Z,68.07
2022-09-12T16:51:36.328Z,68.08
2022-09-12T16:54:09.438Z,68.21
2022-09-12T16:56:42.892Z,68.21
2022-09-12T16:59:19.459Z,68.46
2022-09-12T17:01:55.691Z,68.45
2022-09-12T17:04:32.436Z,68.58
2022-09-12T17:07:05.532Z,68.66
2022-09-12T17:09:38.694Z,68.74
2022-09-12T17:12:12.476Z,68.78
2022-09-12T17:14:45.653Z,68.95
2022-09-12T17:17:18.878Z,69.09
2022-09-12T17:19:55.506Z,69.34
2022-09-12T17:22:28.939Z,69.29
2022-09-12T17:25:05.322Z,69.34
2022-09-12T17:27:38.550Z,69.33
2022-09-12T17:30:14.016Z,69.30
2022-09-12T17:32:47.235Z,69.05
2022-09-12T17:35:20.950Z,68.84
2022-09-12T17:38:19.330Z,68.29
2022-09-12T17:40:59.785Z,68.26
2022-09-12T17:43:34.014Z,68.50
2022-09-12T17:46:07.925Z,68.62
2022-09-12T17:48:42.016Z,68.74
2022-09-12T17:51:18.569Z,68.55
2022-09-12T17:53:57.043Z,68.52
2022-09-12T17:56:40.804Z,68.34
2022-09-12T17:59:35.020Z,68.21
2022-09-12T18:02:14.403Z,68.21
2022-09-12T18:04:48.996Z,68.27
2022-09-12T18:07:23.547Z,68.23
2022-09-12T18:09:56.964Z,68.07
2022-09-12T18:12:30.757Z,68.23
2022-09-12T18:15:04.326Z,68.24
2022-09-12T18:17:38.026Z,68.05
2022-09-12T18:20:14.591Z,68.14
2022-09-12T18:22:50.797Z,68.33
2022-09-12T18:25:27.955Z,68.32
2022-09-12T18:28:04.153Z,68.53
2022-09-12T18:30:42.590Z,68.58
2022-09-12T18:33:17.993Z,68.43
2022-09-12T18:35:54.994Z,68.42
2022-09-12T18:38:28.596Z,68.57
2022-09-12T18:41:07.507Z,68.67
2022-09-12T18:43:42.418Z,68.72
2022-09-12T18:46:17.928Z,68.68
2022-09-12T18:48:51.946Z,68.62
2022-09-12T18:51:32.063Z,68.79
2022-09-12T18:54:07.680Z,69.03
2022-09-12T18:56:44.936Z,68.91
2022-09-12T18:59:18.977Z,68.89
2022-09-12T19:01:54.893Z,68.94
2022-09-12T19:04:31.861Z,69.20
2022-09-12T19:07:08.445Z,69.32
2022-09-12T19:09:48.817Z,69.34
2022-09-12T19:12:22.329Z,69.22
2022-09-12T19:14:59.037Z,69.20
2022-09-12T19:17:36.463Z,69.39
2022-09-12T19:20:16.344Z,69.44
2022-09-12T19:22:53.062Z,69.73
2022-09-12T19:25:26.619Z,69.81
2022-09-12T19:28:00.152Z,69.73
2022-09-12T19:30:37.430Z,69.60
2022-09-12T19:33:12.574Z,69.79
2022-09-12T19:35:51.128Z,70.01
2022-09-12T19:38:44.937Z,70.01
2022-09-12T19:41:20.771Z,70.06
2022-09-12T19:43:54.594Z,69.98
2022-09-12T19:46:48.495Z,70.03
2022-09-12T19:49:21.575Z,70.18
2022-09-12T19:51:55.358Z,70.19
2022-09-12T19:54:28.426Z,70.17
2022-09-12T19:57:01.854Z,70.33
2022-09-12T19:59:35.150Z,70.53
2022-09-12T20:02:09.790Z,70.53
2022-09-12T20:04:52.099Z,70.53
2022-09-12T20:07:34.129Z,70.54
2022-09-12T20:10:12.054Z,70.57
2022-09-12T20:12:45.317Z,70.67
2022-09-12T20:15:28.700Z,70.70
2022-09-12T20:18:04.903Z,70.69
2022-09-12T20:20:40.459Z,70.68
2022-09-12T20:23:16.315Z,70.88
2022-09-12T20:25:52.239Z,70.96
2022-09-12T20:28:28.133Z,71.03
2022-09-12T20:31:09.660Z,70.84
2022-09-12T20:33:51.114Z,71.14
2022-09-12T20:36:36.592Z,71.11
2022-09-12T20:39:22.486Z,71.14
2022-09-12T20:41:55.803Z,71.25
2022-09-12T20:44:30.518Z,71.22
2022-09-12T20:47:03.612Z,71.15
2022-09-12T20:49:39.964Z,71.18
2022-09-12T20:52:13.456Z,71.11
2022-09-12T20:54:46.887Z,71.27
2022-09-12T20:57:23.526Z,71.18
2022-09-12T20:59:56.538Z,71.21
2022-09-12T21:02:30.307Z,71.26
2022-09-12T21:05:24.049Z,71.34
2022-09-12T21:08:16.772Z,71.40
2022-09-12T21:11:10.566Z,71.35
2022-09-12T21:13:44.055Z,71.29
2022-09-12T21:16:21.920Z,71.48
2022-09-12T21:18:59.050Z,71.49
2022-09-12T21:21:32.360Z,71.62
2022-09-12T21:24:06.913Z,71.55
2022-09-12T21:26:40.077Z,71.61
2022-09-12T21:29:16.418Z,71.60
2022-09-12T21:31:49.748Z,71.54
2022-09-12T21:34:26.193Z,71.51
2022-09-12T21:37:01.857Z,71.54
2022-09-12T21:39:44.291Z,71.43
2022-09-12T21:42:20.153Z,71.59
2022-09-12T21:45:04.554Z,71.50
2022-09-12T21:47:40.654Z,71.58
2022-09-12T21:50:18.304Z,71.47
2022-09-12T21:52:55.146Z,71.39
2022-09-12T21:55:29.082Z,71.57
2022-09-12T21:58:04.539Z,71.64
2022-09-12T22:00:41.775Z,71.53
2022-09-12T22:03:19.163Z,71.45
2022-09-12T22:05:59.397Z,71.56
2022-09-12T22:08:34.254Z,71.52
2022-09-12T22:11:27.750Z,71.37
2022-09-12T22:14:01.484Z,71.41
2022-09-12T22:16:37.306Z,71.43
2022-09-12T22:19:15.336Z,71.57
2022-09-12T22:22:13.277Z,71.53
2022-09-12T22:24:46.272Z,71.49
2022-09-12T22:27:22.532Z,71.45
2022-09-12T22:30:12.201Z,71.41
2022-09-12T22:32:45.459Z,71.43
2022-09-12T22:35:19.341Z,71.55
2022-09-12T22:37:55.845Z,71.38
2022-09-12T22:40:49.224Z,71.39
2022-09-12T22:43:22.575Z,71.32
2022-09-12T22:45:55.940Z,71.35
2022-09-12T22:48:32.237Z,71.37
2022-09-12T22:51:05.716Z,71.39
2022-09-12T22:53:42.371Z,71.32
2022-09-12T22:56:16.494Z,71.36
2022-09-12T22:58:49.508Z,71.34
2022-09-12T23:01:23.247Z,71.43
2022-09-12T23:04:02.006Z,71.41
2022-09-12T23:06:37.654Z,71.42
2022-09-12T23:09:11.044Z,71.56
2022-09-12T23:11:46.969Z,71.24
2022-09-12T23:14:20.605Z,71.43
2022-09-12T23:16:53.706Z,71.44
2022-09-12T23:19:30.096Z,71.35
2022-09-12T23:22:06.640Z,71.35
2022-09-12T23:24:42.357Z,71.53
2022-09-12T23:27:18.497Z,71.27
2022-09-12T23:29:54.956Z,71.41
2022-09-12T23:32:28.798Z,71.38
2022-09-12T23:35:02.954Z,71.34
2022-09-12T23:37:38.276Z,71.26
2022-09-12T23:40:20.304Z,71.25
2022-09-12T23:42:56.892Z,71.28
2022-09-12T23:45:32.602Z,71.36
2022-09-12T23:48:06.528Z,71.36
2022-09-12T23:50:39.575Z,71.39
2022-09-12T23:53:16.966Z,71.13
2022-09-12T23:56:00.955Z,71.09
2022-09-12T23:58:36.512Z,71.05
